sensor_id;sensor_type;location;lat;lon;timestamp;pressure;altitude;pressure_sealevel;temperature;humidity
6433;BME280;3249;42.690;23.260;2023-11-21T00:02:08;94032.22;;;3.23;100.00
6433;BME280;3249;42.690;23.260;2023-11-21T00:04:40;94045.00;;;3.44;100.00
6433;BME280;3249;42.690;23.260;2023-11-21T00:07:10;94015.31;;;3.15;100.00
6433;BME280;3249;42.690;23.260;2023-11-21T00:09:39;94040.22;;;2.91;100.00
6433;BME280;3249;42.690;23.260;2023-11-21T00:12:08;94045.06;;;2.86;100.00
6433;BME280;3249;42.690;23.260;2023-11-21T00:14:39;94046.28;;;3.04;100.00
6433;BME280;3249;42.690;23.260;2023-11-21T00:17:08;94046.16;;;3.27;100.00
6433;BME280;3249;42.690;23.260;2023-11-21T00:19:40;94046.44;;;3.32;100.00
6433;BME280;3249;42.690;23.260;2023-11-21T00:22:10;94049.66;;;3.40;100.00
6433;BME280;3249;42.690;23.260;2023-11-21T00:24:39;94045.38;;;3.26;100.00
6433;BME280;3249;42.690;23.260;2023-11-21T00:27:08;94043.16;;;3.38;100.00
6433;BME280;3249;42.690;23.260;2023-11-21T00:29:37;94048.94;;;3.46;100.00
6433;BME280;3249;42.690;23.260;2023-11-21T00:32:07;94008.34;;;3.38;100.00
6433;BME280;3249;42.690;23.260;2023-11-21T00:34:40;94032.66;;;3.62;100.00
6433;BME280;3249;42.690;23.260;2023-11-21T00:37:10;94043.59;;;3.56;100.00
6433;BME280;3249;42.690;23.260;2023-11-21T00:39:39;94027.81;;;3.46;100.00
6433;BME280;3249;42.690;23.260;2023-11-21T00:42:09;94036.81;;;3.13;100.00
6433;BME280;3249;42.690;23.260;2023-11-21T00:44:38;94043.34;;;3.36;100.00
6433;BME280;3249;42.690;23.260;2023-11-21T00:47:08;94045.78;;;3.44;100.00
6433;BME280;3249;42.690;23.260;2023-11-21T00:49:43;94054.56;;;3.42;100.00
6433;BME280;3249;42.690;23.260;2023-11-21T00:52:12;94042.47;;;3.29;100.00
6433;BME280;3249;42.690;23.260;2023-11-21T00:54:42;94032.59;;;2.91;100.00
6433;BME280;3249;42.690;23.260;2023-11-21T00:57:12;94026.72;;;2.76;100.00
6433;BME280;3249;42.690;23.260;2023-11-21T00:59:42;94018.66;;;2.72;100.00
6433;BME280;3249;42.690;23.260;2023-11-21T01:02:11;94025.06;;;2.97;100.00
6433;BME280;3249;42.690;23.260;2023-11-21T01:04:44;94019.09;;;3.05;100.00
6433;BME280;3249;42.690;23.260;2023-11-21T01:07:13;93992.47;;;2.72;100.00
6433;BME280;3249;42.690;23.260;2023-11-21T01:09:43;93986.06;;;2.47;100.00
6433;BME280;3249;42.690;23.260;2023-11-21T01:12:13;94008.84;;;2.69;100.00
6433;BME280;3249;42.690;23.260;2023-11-21T01:14:44;94003.84;;;2.76;100.00
6433;BME280;3249;42.690;23.260;2023-11-21T01:17:14;94006.69;;;2.81;100.00
6433;BME280;3249;42.690;23.260;2023-11-21T01:19:47;94019.34;;;3.10;100.00
6433;BME280;3249;42.690;23.260;2023-11-21T01:22:16;93985.03;;;2.70;100.00
6433;BME280;3249;42.690;23.260;2023-11-21T01:24:52;94028.06;;;3.01;100.00
6433;BME280;3249;42.690;23.260;2023-11-21T01:27:22;94024.88;;;2.99;100.00
6433;BME280;3249;42.690;23.260;2023-11-21T01:29:53;94019.47;;;3.02;100.00
6433;BME280;3249;42.690;23.260;2023-11-21T01:32:22;94022.50;;;2.97;100.00
6433;BME280;3249;42.690;23.260;2023-11-21T01:34:55;94022.88;;;3.09;100.00
6433;BME280;3249;42.690;23.260;2023-11-21T01:37:26;94000.38;;;2.77;100.00
6433;BME280;3249;42.690;23.260;2023-11-21T01:39:56;94026.28;;;2.87;100.00
6433;BME280;3249;42.690;23.260;2023-11-21T01:42:28;94012.72;;;2.94;100.00
6433;BME280;3249;42.690;23.260;2023-11-21T01:44:57;94030.16;;;2.97;100.00
6433;BME280;3249;42.690;23.260;2023-11-21T01:47:28;94010.88;;;2.88;100.00
6433;BME280;3249;42.690;23.260;2023-11-21T01:50:02;93993.53;;;2.48;100.00
6433;BME280;3249;42.690;23.260;2023-11-21T01:52:34;93975.56;;;2.50;100.00
6433;BME280;3249;42.690;23.260;2023-11-21T01:55:07;94007.78;;;2.49;100.00
6433;BME280;3249;42.690;23.260;2023-11-21T01:57:47;94016.03;;;2.37;100.00
6433;BME280;3249;42.690;23.260;2023-11-21T02:00:18;94017.53;;;2.09;100.00
6433;BME280;3249;42.690;23.260;2023-11-21T02:02:49;94019.75;;;2.26;100.00
6433;BME280;3249;42.690;23.260;2023-11-21T02:05:22;93998.72;;;2.03;100.00
6433;BME280;3249;42.690;23.260;2023-11-21T02:07:52;94015.47;;;2.27;100.00
6433;BME280;3249;42.690;23.260;2023-11-21T02:10:23;94020.75;;;2.40;100.00
6433;BME280;3249;42.690;23.260;2023-11-21T02:12:53;94024.50;;;2.44;100.00
6433;BME280;3249;42.690;23.260;2023-11-21T02:15:25;94017.34;;;2.47;100.00
6433;BME280;3249;42.690;23.260;2023-11-21T02:17:56;94012.25;;;2.33;100.00
6433;BME280;3249;42.690;23.260;2023-11-21T02:20:30;94017.66;;;2.30;100.00
6433;BME280;3249;42.690;23.260;2023-11-21T02:23:06;93987.44;;;2.20;100.00
6433;BME280;3249;42.690;23.260;2023-11-21T02:25:36;94013.50;;;2.14;100.00
6433;BME280;3249;42.690;23.260;2023-11-21T02:28:06;93985.00;;;2.27;100.00
6433;BME280;3249;42.690;23.260;2023-11-21T02:30:39;93983.69;;;2.31;100.00
6433;BME280;3249;42.690;23.260;2023-11-21T02:33:09;94005.47;;;2.25;100.00
6433;BME280;3249;42.690;23.260;2023-11-21T02:35:38;94003.91;;;2.24;100.00
6433;BME280;3249;42.690;23.260;2023-11-21T02:38:13;94005.72;;;2.16;100.00
6433;BME280;3249;42.690;23.260;2023-11-21T02:40:43;94007.19;;;2.33;100.00
6433;BME280;3249;42.690;23.260;2023-11-21T02:43:12;94012.69;;;2.36;100.00
6433;BME280;3249;42.690;23.260;2023-11-21T02:45:41;93999.47;;;2.41;100.00
6433;BME280;3249;42.690;23.260;2023-11-21T02:48:10;94009.81;;;2.54;100.00
6433;BME280;3249;42.690;23.260;2023-11-21T02:50:40;94000.81;;;2.51;100.00
6433;BME280;3249;42.690;23.260;2023-11-21T02:53:09;94005.97;;;2.58;100.00
6433;BME280;3249;42.690;23.260;2023-11-21T02:55:41;94008.59;;;2.64;100.00
6433;BME280;3249;42.690;23.260;2023-11-21T02:58:10;94010.25;;;2.57;100.00
6433;BME280;3249;42.690;23.260;2023-11-21T03:00:40;93999.41;;;2.49;100.00
6433;BME280;3249;42.690;23.260;2023-11-21T03:03:09;93994.41;;;2.41;100.00
6433;BME280;3249;42.690;23.260;2023-11-21T03:05:39;93993.41;;;1.90;100.00
6433;BME280;3249;42.690;23.260;2023-11-21T03:08:08;93993.25;;;1.92;100.00
6433;BME280;3249;42.690;23.260;2023-11-21T03:10:40;93995.41;;;1.80;100.00
6433;BME280;3249;42.690;23.260;2023-11-21T03:13:09;93984.72;;;1.85;100.00
6433;BME280;3249;42.690;23.260;2023-11-21T03:15:39;93999.47;;;2.04;100.00
6433;BME280;3249;42.690;23.260;2023-11-21T03:18:08;94007.41;;;2.09;100.00
6433;BME280;3249;42.690;23.260;2023-11-21T03:20:38;94003.63;;;2.05;100.00
6433;BME280;3249;42.690;23.260;2023-11-21T03:23:07;94004.94;;;2.15;100.00
6433;BME280;3249;42.690;23.260;2023-11-21T03:25:36;94007.84;;;2.27;100.00
6433;BME280;3249;42.690;23.260;2023-11-21T03:28:08;94015.41;;;2.35;100.00
6433;BME280;3249;42.690;23.260;2023-11-21T03:30:37;94016.97;;;1.99;100.00
6433;BME280;3249;42.690;23.260;2023-11-21T03:33:06;94008.53;;;1.84;100.00
6433;BME280;3249;42.690;23.260;2023-11-21T03:35:35;94011.97;;;1.91;100.00
6433;BME280;3249;42.690;23.260;2023-11-21T03:38:10;94014.09;;;2.02;100.00
6433;BME280;3249;42.690;23.260;2023-11-21T03:40:39;94005.97;;;2.06;100.00
6433;BME280;3249;42.690;23.260;2023-11-21T03:43:10;93990.09;;;1.90;100.00
6433;BME280;3249;42.690;23.260;2023-11-21T03:45:40;93988.63;;;1.73;100.00
6433;BME280;3249;42.690;23.260;2023-11-21T03:48:12;93971.28;;;1.84;100.00
6433;BME280;3249;42.690;23.260;2023-11-21T03:50:42;93983.56;;;1.95;100.00
6433;BME280;3249;42.690;23.260;2023-11-21T03:53:13;93979.59;;;1.70;100.00
6433;BME280;3249;42.690;23.260;2023-11-21T03:55:42;93981.72;;;2.04;100.00
6433;BME280;3249;42.690;23.260;2023-11-21T03:58:14;93985.06;;;2.19;100.00
6433;BME280;3249;42.690;23.260;2023-11-21T04:00:46;93988.41;;;2.19;100.00
6433;BME280;3249;42.690;23.260;2023-11-21T04:03:15;93983.50;;;2.18;100.00
6433;BME280;3249;42.690;23.260;2023-11-21T04:05:45;93983.25;;;2.13;100.00
6433;BME280;3249;42.690;23.260;2023-11-21T04:08:14;93941.66;;;1.77;100.00
6433;BME280;3249;42.690;23.260;2023-11-21T04:10:43;93970.81;;;2.18;100.00
6433;BME280;3249;42.690;23.260;2023-11-21T04:13:15;93982.63;;;2.25;100.00
6433;BME280;3249;42.690;23.260;2023-11-21T04:15:45;93980.09;;;2.40;100.00
6433;BME280;3249;42.690;23.260;2023-11-21T04:18:14;93977.94;;;2.37;100.00
6433;BME280;3249;42.690;23.260;2023-11-21T04:20:43;93982.38;;;2.20;100.00
6433;BME280;3249;42.690;23.260;2023-11-21T04:23:12;93981.72;;;2.41;100.00
6433;BME280;3249;42.690;23.260;2023-11-21T04:25:43;93978.88;;;2.36;100.00
6433;BME280;3249;42.690;23.260;2023-11-21T04:28:15;93984.75;;;2.36;100.00
6433;BME280;3249;42.690;23.260;2023-11-21T04:30:44;93987.38;;;2.43;100.00
6433;BME280;3249;42.690;23.260;2023-11-21T04:33:13;93981.00;;;2.47;100.00
6433;BME280;3249;42.690;23.260;2023-11-21T04:35:42;93976.16;;;2.52;100.00
6433;BME280;3249;42.690;23.260;2023-11-21T04:38:12;93991.25;;;2.53;100.00
6433;BME280;3249;42.690;23.260;2023-11-21T04:40:42;93984.59;;;2.67;100.00
6433;BME280;3249;42.690;23.260;2023-11-21T04:43:11;93983.78;;;2.37;100.00
6433;BME280;3249;42.690;23.260;2023-11-21T04:45:43;93990.31;;;2.17;100.00
6433;BME280;3249;42.690;23.260;2023-11-21T04:48:12;93991.28;;;2.16;100.00
6433;BME280;3249;42.690;23.260;2023-11-21T04:50:42;93989.31;;;2.41;100.00
6433;BME280;3249;42.690;23.260;2023-11-21T04:53:11;93998.25;;;2.37;100.00
6433;BME280;3249;42.690;23.260;2023-11-21T04:55:40;93995.56;;;2.53;100.00
6433;BME280;3249;42.690;23.260;2023-11-21T04:58:10;93995.19;;;2.56;100.00
6433;BME280;3249;42.690;23.260;2023-11-21T05:00:39;94003.34;;;2.66;100.00
6433;BME280;3249;42.690;23.260;2023-11-21T05:03:12;93998.00;;;2.75;100.00
6433;BME280;3249;42.690;23.260;2023-11-21T05:05:41;94005.28;;;2.78;100.00
6433;BME280;3249;42.690;23.260;2023-11-21T05:08:10;93989.25;;;2.78;100.00
6433;BME280;3249;42.690;23.260;2023-11-21T05:10:39;93974.25;;;2.83;100.00
6433;BME280;3249;42.690;23.260;2023-11-21T05:13:08;93984.06;;;2.86;100.00
6433;BME280;3249;42.690;23.260;2023-11-21T05:15:37;93983.72;;;2.74;100.00
6433;BME280;3249;42.690;23.260;2023-11-21T05:18:07;93989.22;;;2.92;100.00
6433;BME280;3249;42.690;23.260;2023-11-21T05:20:39;93968.47;;;2.89;100.00
6433;BME280;3249;42.690;23.260;2023-11-21T05:23:09;93987.63;;;3.06;100.00
6433;BME280;3249;42.690;23.260;2023-11-21T05:25:39;93990.88;;;3.14;100.00
6433;BME280;3249;42.690;23.260;2023-11-21T05:28:09;93998.13;;;3.17;100.00
6433;BME280;3249;42.690;23.260;2023-11-21T05:30:39;94005.91;;;3.16;100.00
6433;BME280;3249;42.690;23.260;2023-11-21T05:33:07;94008.56;;;3.22;100.00
6433;BME280;3249;42.690;23.260;2023-11-21T05:35:39;94001.31;;;2.61;100.00
6433;BME280;3249;42.690;23.260;2023-11-21T05:38:08;94001.78;;;2.65;100.00
6433;BME280;3249;42.690;23.260;2023-11-21T05:40:37;94003.31;;;2.95;100.00
6433;BME280;3249;42.690;23.260;2023-11-21T05:43:06;93982.06;;;2.52;100.00
6433;BME280;3249;42.690;23.260;2023-11-21T05:45:36;94008.50;;;2.87;100.00
6433;BME280;3249;42.690;23.260;2023-11-21T05:48:05;94003.31;;;2.95;100.00
6433;BME280;3249;42.690;23.260;2023-11-21T05:50:34;93991.59;;;2.94;100.00
6433;BME280;3249;42.690;23.260;2023-11-21T05:53:06;93984.84;;;2.72;100.00
6433;BME280;3249;42.690;23.260;2023-11-21T05:55:37;93991.16;;;2.90;100.00
6433;BME280;3249;42.690;23.260;2023-11-21T05:58:07;93992.13;;;2.75;100.00
6433;BME280;3249;42.690;23.260;2023-11-21T06:00:37;93991.34;;;2.74;100.00
6433;BME280;3249;42.690;23.260;2023-11-21T06:03:05;93998.53;;;2.71;100.00
6433;BME280;3249;42.690;23.260;2023-11-21T06:05:35;94003.59;;;2.85;100.00
6433;BME280;3249;42.690;23.260;2023-11-21T06:08:07;93990.53;;;3.03;100.00
6433;BME280;3249;42.690;23.260;2023-11-21T06:10:37;94012.97;;;3.14;100.00
6433;BME280;3249;42.690;23.260;2023-11-21T06:13:09;94012.16;;;3.13;100.00
6433;BME280;3249;42.690;23.260;2023-11-21T06:15:38;94003.13;;;3.11;100.00
6433;BME280;3249;42.690;23.260;2023-11-21T06:18:08;94015.75;;;3.19;100.00
6433;BME280;3249;42.690;23.260;2023-11-21T06:20:38;94017.84;;;3.30;100.00
6433;BME280;3249;42.690;23.260;2023-11-21T06:23:10;94012.97;;;3.14;100.00
6433;BME280;3249;42.690;23.260;2023-11-21T06:25:39;94023.09;;;3.28;100.00
6433;BME280;3249;42.690;23.260;2023-11-21T06:28:08;94027.22;;;3.44;100.00
6433;BME280;3249;42.690;23.260;2023-11-21T06:30:37;94022.59;;;3.04;100.00
6433;BME280;3249;42.690;23.260;2023-11-21T06:33:08;94018.22;;;2.98;100.00
6433;BME280;3249;42.690;23.260;2023-11-21T06:35:37;94025.66;;;3.14;100.00
6433;BME280;3249;42.690;23.260;2023-11-21T06:38:09;94027.88;;;3.02;100.00
6433;BME280;3249;42.690;23.260;2023-11-21T06:40:38;94033.00;;;3.38;100.00
6433;BME280;3249;42.690;23.260;2023-11-21T06:43:07;94029.00;;;3.14;100.00
6433;BME280;3249;42.690;23.260;2023-11-21T06:45:36;94040.19;;;3.20;100.00
6433;BME280;3249;42.690;23.260;2023-11-21T06:48:06;94038.75;;;2.96;100.00
6433;BME280;3249;42.690;23.260;2023-11-21T06:50:35;94043.13;;;2.88;100.00
6433;BME280;3249;42.690;23.260;2023-11-21T06:53:04;94037.31;;;3.23;100.00
6433;BME280;3249;42.690;23.260;2023-11-21T06:55:36;94044.03;;;3.45;100.00
6433;BME280;3249;42.690;23.260;2023-11-21T06:58:06;94040.66;;;3.59;100.00
6433;BME280;3249;42.690;23.260;2023-11-21T07:00:35;94039.59;;;3.68;100.00
6433;BME280;3249;42.690;23.260;2023-11-21T07:03:04;94037.66;;;3.91;100.00
6433;BME280;3249;42.690;23.260;2023-11-21T07:05:33;94013.28;;;3.82;100.00
6433;BME280;3249;42.690;23.260;2023-11-21T07:08:03;94034.88;;;4.07;100.00
6433;BME280;3249;42.690;23.260;2023-11-21T07:10:36;94030.22;;;3.89;100.00
6433;BME280;3249;42.690;23.260;2023-11-21T07:13:06;94030.75;;;3.85;100.00
6433;BME280;3249;42.690;23.260;2023-11-21T07:15:38;94019.47;;;3.94;100.00
6433;BME280;3249;42.690;23.260;2023-11-21T07:18:07;94000.41;;;3.83;100.00
6433;BME280;3249;42.690;23.260;2023-11-21T07:20:37;94028.91;;;3.79;100.00
6433;BME280;3249;42.690;23.260;2023-11-21T07:23:07;94026.09;;;3.88;100.00
6433;BME280;3249;42.690;23.260;2023-11-21T07:25:40;94027.78;;;4.02;100.00
6433;BME280;3249;42.690;23.260;2023-11-21T07:28:09;94039.25;;;4.13;100.00
6433;BME280;3249;42.690;23.260;2023-11-21T07:30:38;94036.22;;;4.24;100.00
6433;BME280;3249;42.690;23.260;2023-11-21T07:33:08;94033.78;;;3.95;100.00
6433;BME280;3249;42.690;23.260;2023-11-21T07:35:38;94047.06;;;4.11;100.00
6433;BME280;3249;42.690;23.260;2023-11-21T07:38:07;94032.19;;;4.15;100.00
6433;BME280;3249;42.690;23.260;2023-11-21T07:40:39;94036.34;;;4.43;100.00
6433;BME280;3249;42.690;23.260;2023-11-21T07:43:08;94035.31;;;4.59;100.00
6433;BME280;3249;42.690;23.260;2023-11-21T07:45:37;94035.38;;;4.72;100.00
6433;BME280;3249;42.690;23.260;2023-11-21T07:48:07;94026.81;;;4.52;100.00
6433;BME280;3249;42.690;23.260;2023-11-21T07:50:36;94023.78;;;4.42;100.00
6433;BME280;3249;42.690;23.260;2023-11-21T07:53:05;94030.50;;;4.77;100.00
6433;BME280;3249;42.690;23.260;2023-11-21T07:55:35;94030.25;;;4.65;100.00
6433;BME280;3249;42.690;23.260;2023-11-21T07:58:07;94021.44;;;5.02;100.00
6433;BME280;3249;42.690;23.260;2023-11-21T08:00:38;94022.34;;;4.88;100.00
6433;BME280;3249;42.690;23.260;2023-11-21T08:03:07;94026.00;;;5.13;100.00
6433;BME280;3249;42.690;23.260;2023-11-21T08:05:37;94021.41;;;4.95;100.00
6433;BME280;3249;42.690;23.260;2023-11-21T08:08:07;94009.88;;;5.06;100.00
6433;BME280;3249;42.690;23.260;2023-11-21T08:10:37;94026.84;;;4.86;100.00
6433;BME280;3249;42.690;23.260;2023-11-21T08:13:09;94014.63;;;5.16;100.00
6433;BME280;3249;42.690;23.260;2023-11-21T08:15:40;94028.75;;;5.18;100.00
6433;BME280;3249;42.690;23.260;2023-11-21T08:18:11;94017.47;;;5.34;100.00
6433;BME280;3249;42.690;23.260;2023-11-21T08:20:41;94027.00;;;5.59;100.00
6433;BME280;3249;42.690;23.260;2023-11-21T08:23:14;94004.50;;;5.29;100.00
6433;BME280;3249;42.690;23.260;2023-11-21T08:25:44;94020.72;;;5.62;100.00
6433;BME280;3249;42.690;23.260;2023-11-21T08:28:17;94010.31;;;5.63;100.00
6433;BME280;3249;42.690;23.260;2023-11-21T08:30:52;94013.72;;;5.90;100.00
6433;BME280;3249;42.690;23.260;2023-11-21T08:33:21;94016.00;;;5.65;100.00
6433;BME280;3249;42.690;23.260;2023-11-21T08:35:50;94013.25;;;5.67;100.00
6433;BME280;3249;42.690;23.260;2023-11-21T08:38:20;94015.78;;;5.60;100.00
6433;BME280;3249;42.690;23.260;2023-11-21T08:40:49;94018.03;;;5.83;100.00
6433;BME280;3249;42.690;23.260;2023-11-21T08:43:20;94017.28;;;6.08;100.00
6433;BME280;3249;42.690;23.260;2023-11-21T08:45:50;94012.75;;;6.04;100.00
6433;BME280;3249;42.690;23.260;2023-11-21T08:48:19;94011.41;;;6.14;100.00
6433;BME280;3249;42.690;23.260;2023-11-21T08:50:48;94011.03;;;6.43;100.00
6433;BME280;3249;42.690;23.260;2023-11-21T08:53:18;94005.13;;;6.17;100.00
6433;BME280;3249;42.690;23.260;2023-11-21T08:55:47;94000.41;;;6.27;100.00
6433;BME280;3249;42.690;23.260;2023-11-21T08:58:16;93993.53;;;6.27;100.00
6433;BME280;3249;42.690;23.260;2023-11-21T09:00:48;93986.63;;;6.54;100.00
6433;BME280;3249;42.690;23.260;2023-11-21T09:03:18;93994.22;;;6.93;100.00
6433;BME280;3249;42.690;23.260;2023-11-21T09:05:47;93988.81;;;7.20;100.00
6433;BME280;3249;42.690;23.260;2023-11-21T09:08:16;93972.84;;;6.68;100.00
6433;BME280;3249;42.690;23.260;2023-11-21T09:10:47;93961.81;;;6.67;100.00
6433;BME280;3249;42.690;23.260;2023-11-21T09:13:17;93954.50;;;6.84;100.00
6433;BME280;3249;42.690;23.260;2023-11-21T09:15:49;93954.88;;;6.94;100.00
6433;BME280;3249;42.690;23.260;2023-11-21T09:18:20;93952.44;;;7.18;100.00
6433;BME280;3249;42.690;23.260;2023-11-21T09:20:49;93951.78;;;7.29;100.00
6433;BME280;3249;42.690;23.260;2023-11-21T09:23:18;93942.81;;;7.07;100.00
6433;BME280;3249;42.690;23.260;2023-11-21T09:25:47;93930.25;;;7.43;100.00
6433;BME280;3249;42.690;23.260;2023-11-21T09:28:18;93928.19;;;7.58;100.00
6433;BME280;3249;42.690;23.260;2023-11-21T09:30:51;93923.88;;;7.83;100.00
6433;BME280;3249;42.690;23.260;2023-11-21T09:33:20;93920.72;;;7.88;100.00
6433;BME280;3249;42.690;23.260;2023-11-21T09:35:51;93917.75;;;7.91;100.00
6433;BME280;3249;42.690;23.260;2023-11-21T09:38:20;93911.31;;;8.06;100.00
6433;BME280;3249;42.690;23.260;2023-11-21T09:40:50;93910.81;;;7.91;100.00
6433;BME280;3249;42.690;23.260;2023-11-21T09:43:21;93896.50;;;7.53;100.00
6433;BME280;3249;42.690;23.260;2023-11-21T09:45:59;93884.25;;;7.86;100.00
6433;BME280;3249;42.690;23.260;2023-11-21T09:48:31;93885.53;;;8.01;100.00
6433;BME280;3249;42.690;23.260;2023-11-21T09:51:03;93859.78;;;8.14;100.00
6433;BME280;3249;42.690;23.260;2023-11-21T09:53:35;93863.38;;;7.58;100.00
6433;BME280;3249;42.690;23.260;2023-11-21T09:56:07;93866.69;;;7.89;100.00
6433;BME280;3249;42.690;23.260;2023-11-21T09:58:37;93871.16;;;8.18;100.00
6433;BME280;3249;42.690;23.260;2023-11-21T10:01:10;93839.25;;;8.14;100.00
6433;BME280;3249;42.690;23.260;2023-11-21T10:03:42;93860.09;;;8.24;100.00
6433;BME280;3249;42.690;23.260;2023-11-21T10:06:13;93858.84;;;8.33;100.00
6433;BME280;3249;42.690;23.260;2023-11-21T10:08:43;93860.97;;;8.54;100.00
6433;BME280;3249;42.690;23.260;2023-11-21T10:11:14;93854.00;;;8.61;100.00
6433;BME280;3249;42.690;23.260;2023-11-21T10:13:46;93855.44;;;8.57;100.00
6433;BME280;3249;42.690;23.260;2023-11-21T10:16:22;93843.91;;;8.48;100.00
6433;BME280;3249;42.690;23.260;2023-11-21T10:18:54;93842.53;;;8.64;100.00
6433;BME280;3249;42.690;23.260;2023-11-21T10:21:24;93837.94;;;9.02;100.00
6433;BME280;3249;42.690;23.260;2023-11-21T10:23:55;93835.94;;;9.15;100.00
6433;BME280;3249;42.690;23.260;2023-11-21T10:26:26;93829.03;;;8.86;100.00
6433;BME280;3249;42.690;23.260;2023-11-21T10:28:57;93822.88;;;8.87;100.00
6433;BME280;3249;42.690;23.260;2023-11-21T10:31:30;93820.66;;;8.61;100.00
6433;BME280;3249;42.690;23.260;2023-11-21T10:34:13;93796.34;;;8.46;100.00
6433;BME280;3249;42.690;23.260;2023-11-21T10:36:44;93832.09;;;8.77;100.00
6433;BME280;3249;42.690;23.260;2023-11-21T10:39:16;93826.81;;;9.19;99.52
6433;BME280;3249;42.690;23.260;2023-11-21T10:41:47;93809.22;;;8.75;100.00
6433;BME280;3249;42.690;23.260;2023-11-21T10:44:18;93819.56;;;8.87;100.00
6433;BME280;3249;42.690;23.260;2023-11-21T10:46:53;93823.19;;;9.38;98.39
6433;BME280;3249;42.690;23.260;2023-11-21T10:49:25;93798.56;;;9.19;97.00
6433;BME280;3249;42.690;23.260;2023-11-21T10:51:55;93794.72;;;8.99;97.90
6433;BME280;3249;42.690;23.260;2023-11-21T10:54:25;93812.50;;;9.53;95.08
6433;BME280;3249;42.690;23.260;2023-11-21T10:56:57;93800.13;;;9.62;93.29
6433;BME280;3249;42.690;23.260;2023-11-21T10:59:30;93813.69;;;9.92;90.20
6433;BME280;3249;42.690;23.260;2023-11-21T11:02:07;93779.47;;;9.57;89.62
6433;BME280;3249;42.690;23.260;2023-11-21T11:04:48;93800.19;;;10.08;89.00
6433;BME280;3249;42.690;23.260;2023-11-21T11:07:19;93805.63;;;10.23;88.76
6433;BME280;3249;42.690;23.260;2023-11-21T11:09:50;93799.28;;;10.14;87.33
6433;BME280;3249;42.690;23.260;2023-11-21T11:12:19;93799.13;;;10.43;84.12
6433;BME280;3249;42.690;23.260;2023-11-21T11:14:50;93795.41;;;10.62;81.35
6433;BME280;3249;42.690;23.260;2023-11-21T11:17:22;93783.44;;;10.68;82.67
6433;BME280;3249;42.690;23.260;2023-11-21T11:19:52;93773.13;;;10.68;81.23
6433;BME280;3249;42.690;23.260;2023-11-21T11:22:31;93783.44;;;10.68;82.15
6433;BME280;3249;42.690;23.260;2023-11-21T11:25:21;93772.34;;;10.28;82.91
6433;BME280;3249;42.690;23.260;2023-11-21T11:27:58;93761.16;;;10.11;85.25
6433;BME280;3249;42.690;23.260;2023-11-21T11:30:41;93756.63;;;10.41;82.07
6433;BME280;3249;42.690;23.260;2023-11-21T11:33:25;93763.03;;;10.38;81.57
6433;BME280;3249;42.690;23.260;2023-11-21T11:36:10;93732.19;;;10.04;84.12
6433;BME280;3249;42.690;23.260;2023-11-21T11:38:45;93763.06;;;10.15;85.11
6433;BME280;3249;42.690;23.260;2023-11-21T11:41:24;93767.75;;;10.07;87.87
6433;BME280;3249;42.690;23.260;2023-11-21T11:43:56;93770.66;;;10.33;88.59
6433;BME280;3249;42.690;23.260;2023-11-21T11:46:44;93730.34;;;10.50;87.86
6433;BME280;3249;42.690;23.260;2023-11-21T11:49:30;93717.56;;;10.16;90.42
6433;BME280;3249;42.690;23.260;2023-11-21T11:55:10;93759.38;;;10.00;100.00
6433;BME280;3249;42.690;23.260;2023-11-21T11:57:43;93740.03;;;9.51;100.00
6433;BME280;3249;42.690;23.260;2023-11-21T12:00:17;93760.47;;;9.69;100.00
6433;BME280;3249;42.690;23.260;2023-11-21T12:02:53;93746.81;;;9.45;100.00
6433;BME280;3249;42.690;23.260;2023-11-21T12:05:26;93759.22;;;9.48;100.00
6433;BME280;3249;42.690;23.260;2023-11-21T12:08:02;93760.84;;;9.31;100.00
6433;BME280;3249;42.690;23.260;2023-11-21T12:10:32;93764.63;;;9.17;100.00
6433;BME280;3249;42.690;23.260;2023-11-21T12:13:09;93765.44;;;9.29;100.00
6433;BME280;3249;42.690;23.260;2023-11-21T12:15:44;93761.63;;;9.20;100.00
6433;BME280;3249;42.690;23.260;2023-11-21T12:18:14;93743.94;;;8.42;100.00
6433;BME280;3249;42.690;23.260;2023-11-21T12:20:49;93748.13;;;8.54;100.00
6433;BME280;3249;42.690;23.260;2023-11-21T12:23:20;93691.72;;;8.00;100.00
6433;BME280;3249;42.690;23.260;2023-11-21T12:25:51;93751.44;;;8.73;100.00
6433;BME280;3249;42.690;23.260;2023-11-21T12:28:21;93753.34;;;8.77;100.00
6433;BME280;3249;42.690;23.260;2023-11-21T12:30:52;93737.38;;;8.75;100.00
6433;BME280;3249;42.690;23.260;2023-11-21T12:33:23;93762.38;;;9.09;100.00
6433;BME280;3249;42.690;23.260;2023-11-21T12:35:58;93744.53;;;9.14;100.00
6433;BME280;3249;42.690;23.260;2023-11-21T12:38:34;93730.78;;;9.09;100.00
6433;BME280;3249;42.690;23.260;2023-11-21T12:41:06;93738.28;;;8.81;100.00
6433;BME280;3249;42.690;23.260;2023-11-21T12:43:37;93748.53;;;9.10;100.00
6433;BME280;3249;42.690;23.260;2023-11-21T12:46:10;93736.88;;;9.26;100.00
6433;BME280;3249;42.690;23.260;2023-11-21T12:48:41;93722.91;;;9.33;100.00
6433;BME280;3249;42.690;23.260;2023-11-21T12:51:19;93711.53;;;9.41;100.00
6433;BME280;3249;42.690;23.260;2023-11-21T12:53:51;93708.25;;;9.22;100.00
6433;BME280;3249;42.690;23.260;2023-11-21T12:56:27;93708.59;;;9.14;100.00
6433;BME280;3249;42.690;23.260;2023-11-21T12:58:58;93723.34;;;9.30;100.00
6433;BME280;3249;42.690;23.260;2023-11-21T13:01:42;93712.63;;;9.45;100.00
6433;BME280;3249;42.690;23.260;2023-11-21T13:04:17;93717.00;;;9.56;100.00
6433;BME280;3249;42.690;23.260;2023-11-21T13:06:50;93704.00;;;9.05;100.00
6433;BME280;3249;42.690;23.260;2023-11-21T13:09:21;93702.84;;;8.89;100.00
6433;BME280;3249;42.690;23.260;2023-11-21T13:11:59;93695.47;;;8.52;100.00
6433;BME280;3249;42.690;23.260;2023-11-21T13:14:31;93700.31;;;8.60;100.00
6433;BME280;3249;42.690;23.260;2023-11-21T13:17:01;93702.28;;;8.87;100.00
6433;BME280;3249;42.690;23.260;2023-11-21T13:19:37;93709.94;;;8.64;100.00
6433;BME280;3249;42.690;23.260;2023-11-21T13:22:12;93710.75;;;8.76;100.00
6433;BME280;3249;42.690;23.260;2023-11-21T13:24:41;93704.72;;;8.82;100.00
6433;BME280;3249;42.690;23.260;2023-11-21T13:27:13;93695.38;;;8.99;100.00
6433;BME280;3249;42.690;23.260;2023-11-21T13:29:43;93697.78;;;9.12;100.00
6433;BME280;3249;42.690;23.260;2023-11-21T13:32:18;93694.75;;;9.15;100.00
6433;BME280;3249;42.690;23.260;2023-11-21T13:34:52;93682.59;;;9.11;100.00